Meath Environmental Platform

Observations for Trim Patrick St

Time AQI Temp °C Hum % Pres Pa CO μg/m³ H₂S μg/m³ NO μg/m³ NO₂ μg/m³ O₃ μg/m³ SO₂ μg/m³ PM1 μg/m³ PM2.5 μg/m³ PM10 μg/m³
Saturday 8 August 2026
15:30 2 33.5 31 69,458 0 0 0.47 12.39 89.72 17.29 2 7.62 8.38
15:29 2 33.5 30 69,432 0 0 0.48 11.88 81.7 17.52 2 8.47 9.32
15:28 2 33.5 31 69,432 0 0 0.47 11.37 79.88 18.12 2.86 8.43 9.27
15:27 2 33.5 31 69,432 0 0 0.48 11.2 74.5 16.59 2.86 9.25 10.17
15:26 2 33.5 32 69,460 0 0 0.48 12.69 83.13 17.61 2.86 8.37 9.21
15:24 2 33.3 31 69,406 0 0 0.51 11.54 75.63 16.6 2.86 9.23 10.16
15:23 2 33.2 31 69,402 0 0 0.52 10.62 58.98 16.57 2 7.59 8.35
15:22 2 33.2 32 69,393 0 0 0.52 9.83 59.67 15.17 2 7.57 8.33
15:21 2 33.1 32 69,412 0 0 0.53 11.64 99.33 18.15 2 7.54 8.3
15:20 2 33 31 69,404 0 0 0.55 12.22 107.38 18.01 2 8.41 9.25
15:19 2 33 31 69,395 0 0 0.55 12.58 75.48 15.5 2.86 8.42 9.26
15:18 2 33 31 69,385 0 0 0.54 9.36 54.78 15.73 2 7.59 8.35
15:13 2 32.6 32 69,389 0 0 0.59 11.62 71.87 15.75 2 7.52 8.27
15:12 2 32.5 32 69,381 0 0 0.61 11.88 72.74 15.43 2 8.33 9.16
15:11 2 32.4 32 69,367 0 0 0.63 11.8 65.89 15.44 2 7.54 8.3
15:10 2 32.2 32 69,347 0 0 0.64 11.7 75.13 14.9 2 7.53 8.28
15:09 2 32.1 33 69,353 0 0 0.65 11.78 98.53 14.87 2.86 8.28 9.11
15:08 2 32 33 69,365 0 0 0.65 11.43 73.76 15.05 2 7.47 8.21
15:07 2 31.8 34 69,353 0 0 0.67 11.15 73.84 14.86 2 8.21 9.03
15:05 2 31.6 33 69,320 0 0 0.77 11.47 72.68 14.56 2 7.49 8.24